Bf Caroda — V2CV5 — position and weather

sailwx.info

Track history (hours):
 
Tides and Currents Weather Stations Pressure Air Temp Water Temp Dewpoint Dewpoint Depression Visibility Wind Speed Wind Dir Waves Ship Positions

Bf Caroda

Last reported at 2016-May-27 01:15 UTC. Time now 2016-May-27 12:22 UTC.
Position N 42°39' E 004°28'.

Length 134 m; draft 7.8 m.

Type: Ship (hazmat cat A). MMSI: 304678000.

Date/timePositionNaut miles runAvg speedWind from/ knotsBaromVisibWave heightAir tempDewpointWater temp
2016-May-27 01:15N 42°39' E 004°28'1513.2
2016-May-27 00:09N 42°28' E 004°14'2 2.9
2016-May-26 23:32N 42°27' E 004°13'2613.0
2016-May-26 21:30N 42°08' E 003°48'2713.6
2016-May-26 19:33N 41°50' E 003°21'1413.8
2016-May-26 18:33N 41°42' E 003°07'1313.4
2016-May-26 17:33N 41°34' E 002°53'1313.0
2016-May-26 16:33N 41°26' E 002°38'1313.2
2016-May-26 15:33N 41°18' E 002°24'1010.5
2016-May-26 14:33N 41°19' E 002°10'3 1.1
2016-May-26 12:04N 41°21' E 002°10'0 0.0
2016-May-26 11:31N 41°21' E 002°10'5 5.3
2016-May-26 10:33N 41°16' E 002°11'1413.7
2016-May-26 09:33N 41°04' E 002°04'1413.9
2016-May-26 08:33N 40°51' E 001°56'1413.5
2016-May-26 07:33N 40°40' E 001°46'1414.5
2016-May-26 06:33N 40°27' E 001°37'1413.6
2016-May-26 05:33N 40°15' E 001°29'1313.3
2016-May-26 04:33N 40°03' E 001°21'1413.6
2016-May-26 03:31N 39°50' E 001°13'4013.2
2016-May-26 00:31N 39°15' E 000°49'33712.8
2016-May-24 22:09N 36°01' W 004°58'914.6
2016-May-24 21:33N 36°01' W 005°09'1514.5
2016-May-24 20:33N 36°07' W 005°25'1 0.8
2016-May-24 19:31N 36°08' W 005°25'0 0.0
2016-May-24 18:31N 36°08' W 005°25'0 0.0
2016-May-24 17:33N 36°08' W 005°25'0 0.0
2016-May-24 16:33N 36°08' W 005°25'1 0.8
2016-May-24 15:30N 36°09' W 005°25'6 6.4
2016-May-24 14:34N 36°04' W 005°20'6 5.3
2016-May-24 13:23N 36°05' W 005°12'5 6.3
2016-May-24 12:33N 36°03' W 005°18'1111.4
2016-May-24 11:33N 35°57' W 005°30'14412.9
2016-May-24 00:28N 34°05' W 007°20'2913.3
2016-May-23 22:19N 33°39' W 007°34'3 0.4
2016-May-23 14:19N 33°36' W 007°36'173 4.9
2016-May-22 03:14N 35°57' W 005°35'811.6
2016-May-22 02:33N 35°60' W 005°25'14813.4
2016-May-21 15:32N 36°24' W 002°24'1413.7
2016-May-21 14:29N 36°28' W 002°07'7114.3
2016-May-21 09:32N 37°15' W 001°01'1514.3
2016-May-21 08:29N 37°25' W 000°47'1314.3
2016-May-21 07:33N 37°34' W 000°34'1514.7
2016-May-21 06:33N 37°46' W 000°24'1514.4
2016-May-21 05:32N 37°59' W 000°14'1414.2
2016-May-21 04:32N 38°10' W 000°04'1414.1
2016-May-21 03:33N 38°22' E 000°06'6211.4
2016-May-20 22:09N 39°22' W 000°12'712.5
2016-May-20 21:33N 39°27' W 000°19'0 0.3
2016-May-20 20:29N 39°27' W 000°19'0 0.0
2016-May-20 19:22N 39°27' W 000°19'0 0.0
2016-May-20 18:28N 39°27' W 000°19'0 0.0
2016-May-20 17:28N 39°27' W 000°19'0 0.0
2016-May-20 16:33N 39°27' W 000°19'0 0.0
2016-May-20 15:33N 39°27' W 000°19'0 0.0
2016-May-20 14:30N 39°27' W 000°19'0 0.0
2016-May-20 11:06N 39°27' W 000°19'0 0.0
2016-May-20 10:20N 39°27' W 000°19'0 0.0
2016-May-20 09:05N 39°27' W 000°19'0 0.0
2016-May-20 08:29N 39°27' W 000°19'0 0.0
2016-May-20 07:28N 39°27' W 000°19'0 0.0
2016-May-20 06:28N 39°27' W 000°19'3 3.6
2016-May-20 05:32N 39°25' W 000°16'1010.4
2016-May-20 04:33N 39°31' W 000°06'4613.5
2016-May-20 01:10N 40°04' E 000°35'813.6
2016-May-20 00:33N 40°09' E 000°44'1413.5
2016-May-19 23:33N 40°17' E 000°58'1313.1
2016-May-19 22:33N 40°25' E 001°12'7 5.8
2016-May-19 21:23N 40°29' E 001°19'1113.3
2016-May-19 20:33N 40°36' E 001°30'3113.6
2016-May-19 18:18N 41°00' E 001°55'1613.6
2016-May-19 17:06N 41°13' E 002°08'8 0.8
2016-May-19 06:14N 41°15' E 002°19'2 1.2
2016-May-19 04:33N 41°16' E 002°17'16513.3
2016-May-18 16:05N 43°07' E 005°02'714.0
2016-May-18 15:33N 43°12' E 005°09'1211.5
2016-May-18 14:33N 43°21' E 005°19'0 0.0
2016-May-17 06:32N 43°21' E 005°19'9 8.8
2016-May-17 05:32N 43°15' E 005°11'1313.0
2016-May-17 04:33N 43°03' E 005°03'  
Track history (hours):
 
Tides and Currents Weather Stations Pressure Air Temp Water Temp Dewpoint Dewpoint Depression Visibility Wind Speed Wind Dir Waves Ship Positions

Bf Caroda

Last reported at 2016-May-27 01:15 UTC. Time now 2016-May-27 12:22 UTC.
Position N 42°39' E 004°28'.

Length 134 m; draft 7.8 m.

Type: Ship (hazmat cat A). MMSI: 304678000.

Date/timePositionNaut miles runAvg speedWind from/ knotsBaromVisibWave heightAir tempDewpointWater temp
2016-May-27 01:15N 42°39' E 004°28'1513.2
2016-May-27 00:09N 42°28' E 004°14'2 2.9
2016-May-26 23:32N 42°27' E 004°13'2613.0
2016-May-26 21:30N 42°08' E 003°48'2713.6
2016-May-26 19:33N 41°50' E 003°21'1413.8
2016-May-26 18:33N 41°42' E 003°07'1313.4
2016-May-26 17:33N 41°34' E 002°53'1313.0
2016-May-26 16:33N 41°26' E 002°38'1313.2
2016-May-26 15:33N 41°18' E 002°24'1010.5
2016-May-26 14:33N 41°19' E 002°10'3 1.1
2016-May-26 12:04N 41°21' E 002°10'0 0.0
2016-May-26 11:31N 41°21' E 002°10'5 5.3
2016-May-26 10:33N 41°16' E 002°11'1413.7
2016-May-26 09:33N 41°04' E 002°04'1413.9
2016-May-26 08:33N 40°51' E 001°56'1413.5
2016-May-26 07:33N 40°40' E 001°46'1414.5
2016-May-26 06:33N 40°27' E 001°37'1413.6
2016-May-26 05:33N 40°15' E 001°29'1313.3
2016-May-26 04:33N 40°03' E 001°21'1413.6
2016-May-26 03:31N 39°50' E 001°13'4013.2
2016-May-26 00:31N 39°15' E 000°49'33712.8
2016-May-24 22:09N 36°01' W 004°58'914.6
2016-May-24 21:33N 36°01' W 005°09'1514.5
2016-May-24 20:33N 36°07' W 005°25'1 0.8
2016-May-24 19:31N 36°08' W 005°25'0 0.0
2016-May-24 18:31N 36°08' W 005°25'0 0.0
2016-May-24 17:33N 36°08' W 005°25'0 0.0
2016-May-24 16:33N 36°08' W 005°25'1 0.8
2016-May-24 15:30N 36°09' W 005°25'6 6.4
2016-May-24 14:34N 36°04' W 005°20'6 5.3
2016-May-24 13:23N 36°05' W 005°12'5 6.3
2016-May-24 12:33N 36°03' W 005°18'1111.4
2016-May-24 11:33N 35°57' W 005°30'14412.9
2016-May-24 00:28N 34°05' W 007°20'2913.3
2016-May-23 22:19N 33°39' W 007°34'3 0.4
2016-May-23 14:19N 33°36' W 007°36'173 4.9
2016-May-22 03:14N 35°57' W 005°35'811.6
2016-May-22 02:33N 35°60' W 005°25'14813.4
2016-May-21 15:32N 36°24' W 002°24'1413.7
2016-May-21 14:29N 36°28' W 002°07'7114.3
2016-May-21 09:32N 37°15' W 001°01'1514.3
2016-May-21 08:29N 37°25' W 000°47'1314.3
2016-May-21 07:33N 37°34' W 000°34'1514.7
2016-May-21 06:33N 37°46' W 000°24'1514.4
2016-May-21 05:32N 37°59' W 000°14'1414.2
2016-May-21 04:32N 38°10' W 000°04'1414.1
2016-May-21 03:33N 38°22' E 000°06'6211.4
2016-May-20 22:09N 39°22' W 000°12'712.5
2016-May-20 21:33N 39°27' W 000°19'0 0.3
2016-May-20 20:29N 39°27' W 000°19'0 0.0
2016-May-20 19:22N 39°27' W 000°19'0 0.0
2016-May-20 18:28N 39°27' W 000°19'0 0.0
2016-May-20 17:28N 39°27' W 000°19'0 0.0
2016-May-20 16:33N 39°27' W 000°19'0 0.0
2016-May-20 15:33N 39°27' W 000°19'0 0.0
2016-May-20 14:30N 39°27' W 000°19'0 0.0
2016-May-20 11:06N 39°27' W 000°19'0 0.0
2016-May-20 10:20N 39°27' W 000°19'0 0.0
2016-May-20 09:05N 39°27' W 000°19'0 0.0
2016-May-20 08:29N 39°27' W 000°19'0 0.0
2016-May-20 07:28N 39°27' W 000°19'0 0.0
2016-May-20 06:28N 39°27' W 000°19'3 3.6
2016-May-20 05:32N 39°25' W 000°16'1010.4
2016-May-20 04:33N 39°31' W 000°06'4613.5
2016-May-20 01:10N 40°04' E 000°35'813.6
2016-May-20 00:33N 40°09' E 000°44'1413.5
2016-May-19 23:33N 40°17' E 000°58'1313.1
2016-May-19 22:33N 40°25' E 001°12'7 5.8
2016-May-19 21:23N 40°29' E 001°19'1113.3
2016-May-19 20:33N 40°36' E 001°30'3113.6
2016-May-19 18:18N 41°00' E 001°55'1613.6
2016-May-19 17:06N 41°13' E 002°08'8 0.8
2016-May-19 06:14N 41°15' E 002°19'2 1.2
2016-May-19 04:33N 41°16' E 002°17'16513.3
2016-May-18 16:05N 43°07' E 005°02'714.0
2016-May-18 15:33N 43°12' E 005°09'1211.5
2016-May-18 14:33N 43°21' E 005°19'0 0.0
2016-May-17 06:32N 43°21' E 005°19'9 8.8
2016-May-17 05:32N 43°15' E 005°11'1313.0
2016-May-17 04:33N 43°03' E 005°03'  

Dump ship's entire track history